createdAt,value
2022-09-06T00:02:34.785Z,2.67
2022-09-06T00:07:36.694Z,1.73
2022-09-06T00:12:38.674Z,2.13
2022-09-06T00:17:40.155Z,2.30
2022-09-06T00:22:41.742Z,2.70
2022-09-06T00:27:43.245Z,2.00
2022-09-06T00:32:44.786Z,2.22
2022-09-06T00:37:46.646Z,2.58
2022-09-06T00:42:48.134Z,1.88
2022-09-06T00:47:51.240Z,1.75
2022-09-06T00:52:53.097Z,1.90
2022-09-06T00:57:56.482Z,3.25
2022-09-06T01:02:58.006Z,3.78
2022-09-06T01:08:36.013Z,2.38
2022-09-06T01:13:43.290Z,3.97
2022-09-06T01:19:19.395Z,2.70
2022-09-06T01:24:51.190Z,2.40
2022-09-06T01:30:06.982Z,2.55
2022-09-06T01:35:20.228Z,2.60
2022-09-06T01:40:21.776Z,2.10
2022-09-06T01:45:43.857Z,2.63
2022-09-06T01:50:51.290Z,2.20
2022-09-06T01:56:12.675Z,2.17
2022-09-06T02:01:36.571Z,2.22
2022-09-06T02:06:47.291Z,2.00
2022-09-06T02:11:54.122Z,2.50
2022-09-06T02:16:57.559Z,2.30
2022-09-06T02:22:03.269Z,3.88
2022-09-06T02:27:05.035Z,2.45
2022-09-06T02:32:18.158Z,2.90
2022-09-06T02:37:20.533Z,3.40
2022-09-06T02:42:23.088Z,2.22
2022-09-06T02:47:24.639Z,2.53
2022-09-06T02:52:26.130Z,3.35
2022-09-06T02:57:27.627Z,3.45
2022-09-06T03:02:29.201Z,2.80
2022-09-06T03:07:30.781Z,3.30
2022-09-06T03:12:32.284Z,3.40
2022-09-06T03:17:33.794Z,3.63
2022-09-06T03:22:42.387Z,3.67
2022-09-06T03:27:44.346Z,4.13
2022-09-06T03:32:45.827Z,3.55
2022-09-06T03:37:47.301Z,3.63
2022-09-06T03:42:48.809Z,4.10
2022-09-06T03:47:50.314Z,3.83
2022-09-06T03:52:52.026Z,3.60
2022-09-06T03:57:53.496Z,3.45
2022-09-06T04:02:58.563Z,3.47
2022-09-06T04:08:02.793Z,3.20
2022-09-06T04:13:04.274Z,3.00
2022-09-06T04:18:09.121Z,2.95
2022-09-06T04:23:10.872Z,2.90
2022-09-06T04:28:12.358Z,2.90
2022-09-06T04:33:13.892Z,3.10
2022-09-06T04:38:15.461Z,3.40
2022-09-06T04:43:17.089Z,3.10
2022-09-06T04:48:18.766Z,3.00
2022-09-06T04:53:20.302Z,3.65
2022-09-06T04:58:21.777Z,3.72
2022-09-06T05:03:23.345Z,3.05
2022-09-06T05:08:25.633Z,3.03
2022-09-06T05:13:27.146Z,3.08
2022-09-06T05:18:29.044Z,3.53
2022-09-06T05:23:30.774Z,3.58
2022-09-06T05:28:32.325Z,3.42
2022-09-06T05:33:34.151Z,3.90
2022-09-06T05:38:35.674Z,3.75
2022-09-06T05:43:37.238Z,4.07
2022-09-06T05:48:39.014Z,3.50
2022-09-06T05:53:43.109Z,4.32
2022-09-06T05:58:44.719Z,3.75
2022-09-06T06:03:57.588Z,3.58
2022-09-06T06:08:59.677Z,3.75
2022-09-06T06:14:02.885Z,2.97
2022-09-06T06:19:04.455Z,3.10
2022-09-06T06:24:06.406Z,3.53
2022-09-06T06:29:09.559Z,5.35
2022-09-06T06:34:11.182Z,6.03
2022-09-06T06:39:12.748Z,5.35
2022-09-06T06:44:14.255Z,4.10
2022-09-06T06:49:15.798Z,3.97
2022-09-06T06:54:17.284Z,4.43
2022-09-06T06:59:18.836Z,4.75
2022-09-06T07:04:20.370Z,5.13
2022-09-06T07:09:22.245Z,4.70
2022-09-06T07:14:23.773Z,5.35
2022-09-06T07:24:47.274Z,7.38
2022-09-06T07:29:48.767Z,8.18
2022-09-06T07:34:50.247Z,7.32
2022-09-06T07:39:51.814Z,8.77
2022-09-06T07:44:54.134Z,8.88
2022-09-06T07:55:17.174Z,8.40
2022-09-06T08:00:19.468Z,8.32
2022-09-06T08:10:42.511Z,7.15
2022-09-06T08:15:43.983Z,7.65
2022-09-06T08:20:45.468Z,6.88
2022-09-06T08:25:57.640Z,7.10
2022-09-06T08:31:10.810Z,6.80
2022-09-06T08:36:12.406Z,5.38
2022-09-06T08:41:16.850Z,5.93
2022-09-06T08:46:21.462Z,6.55
2022-09-06T08:52:16.827Z,6.05
2022-09-06T08:58:18.845Z,5.28
2022-09-06T09:03:24.938Z,6.53
2022-09-06T09:08:57.032Z,6.10
2022-09-06T09:13:59.528Z,5.38
2022-09-06T09:19:04.117Z,4.70
2022-09-06T09:24:08.669Z,4.95
2022-09-06T09:29:12.672Z,4.90
2022-09-06T09:34:30.974Z,3.95
2022-09-06T09:39:38.462Z,3.72
2022-09-06T09:44:44.334Z,4.30
2022-09-06T09:49:45.770Z,4.83
2022-09-06T09:54:47.750Z,4.13
2022-09-06T09:59:55.900Z,4.22
2022-09-06T10:05:25.311Z,3.22
2022-09-06T10:10:42.888Z,3.08
2022-09-06T10:15:44.539Z,2.70
2022-09-06T10:20:51.707Z,3.10
2022-09-06T10:26:16.287Z,2.80
2022-09-06T10:31:23.719Z,2.55
2022-09-06T10:36:44.203Z,2.53
2022-09-06T10:42:05.905Z,2.83
2022-09-06T10:47:13.637Z,3.80
2022-09-06T10:52:27.989Z,2.95
2022-09-06T11:09:02.349Z,4.13
2022-09-06T11:14:11.483Z,4.55
2022-09-06T11:19:26.087Z,4.25
2022-09-06T11:24:39.317Z,4.88
2022-09-06T11:29:45.163Z,4.57
2022-09-06T11:34:58.915Z,4.57
2022-09-06T11:45:52.903Z,4.13
2022-09-06T11:50:54.501Z,2.72
2022-09-06T11:56:02.033Z,5.07
2022-09-06T12:01:13.051Z,5.72
2022-09-06T12:06:19.197Z,6.35
2022-09-06T12:11:39.629Z,7.22
2022-09-06T12:16:59.140Z,5.10
2022-09-06T12:22:00.706Z,4.88
2022-09-06T12:27:15.692Z,5.53
2022-09-06T12:32:24.064Z,4.90
2022-09-06T12:37:37.393Z,4.53
2022-09-06T12:42:39.015Z,2.53
2022-09-06T12:47:40.542Z,3.67
2022-09-06T12:52:51.007Z,5.07
2022-09-06T12:57:58.120Z,4.13
2022-09-06T13:03:21.229Z,4.85
2022-09-06T13:08:30.766Z,5.28
2022-09-06T13:13:32.390Z,5.50
2022-09-06T13:18:36.878Z,5.93
2022-09-06T13:23:47.647Z,5.55
2022-09-06T13:28:49.147Z,4.15
2022-09-06T13:33:58.863Z,5.18
2022-09-06T13:39:03.484Z,5.88
2022-09-06T13:44:17.009Z,4.55
2022-09-06T13:49:18.501Z,5.55
2022-09-06T13:54:20.200Z,3.72
2022-09-06T13:59:22.208Z,3.30
2022-09-06T14:04:23.744Z,2.33
2022-09-06T14:09:25.241Z,1.90
2022-09-06T14:14:26.777Z,2.13
2022-09-06T14:19:28.842Z,2.20
2022-09-06T14:24:30.338Z,2.40
2022-09-06T14:29:31.958Z,2.10
2022-09-06T14:34:33.429Z,1.80
2022-09-06T14:39:34.999Z,1.65
2022-09-06T14:44:36.571Z,2.50
2022-09-06T14:49:38.062Z,2.50
2022-09-06T14:54:39.627Z,2.35
2022-09-06T14:59:41.331Z,2.72
2022-09-06T15:04:42.891Z,2.13
2022-09-06T15:09:44.366Z,2.20
2022-09-06T15:14:46.004Z,2.35
2022-09-06T15:19:47.529Z,2.20
2022-09-06T15:24:50.367Z,1.70
2022-09-06T15:29:51.855Z,1.90
2022-09-06T15:34:53.458Z,1.80
2022-09-06T15:39:55.050Z,1.77
2022-09-06T15:44:56.671Z,1.98
2022-09-06T15:49:58.173Z,2.47
2022-09-06T15:55:18.102Z,2.60
2022-09-06T16:00:21.992Z,2.60
2022-09-06T16:10:45.934Z,2.92
2022-09-06T16:16:00.938Z,2.03
2022-09-06T16:21:12.320Z,3.08
2022-09-06T16:26:15.929Z,2.20
2022-09-06T16:31:20.925Z,2.43
2022-09-06T16:36:22.589Z,2.70
2022-09-06T16:41:27.070Z,2.55
2022-09-06T16:46:28.821Z,2.20
2022-09-06T16:51:34.025Z,2.78
2022-09-06T16:56:36.202Z,2.75
2022-09-06T17:01:41.512Z,2.53
2022-09-06T17:06:46.758Z,2.92
2022-09-06T17:11:51.531Z,2.63
2022-09-06T17:17:05.365Z,2.60
2022-09-06T17:22:08.300Z,2.70
2022-09-06T17:27:10.073Z,2.33
2022-09-06T17:32:11.671Z,2.40
2022-09-06T17:37:14.318Z,2.35
2022-09-06T17:42:15.954Z,2.00
2022-09-06T17:47:17.449Z,2.33
2022-09-06T17:52:18.944Z,2.55
2022-09-06T17:57:20.473Z,2.15
2022-09-06T18:02:22.068Z,3.67
2022-09-06T18:07:23.553Z,2.65
2022-09-06T18:12:25.060Z,2.15
2022-09-06T18:17:26.861Z,1.60
2022-09-06T18:22:28.343Z,1.70
2022-09-06T18:27:30.325Z,2.08
2022-09-06T18:32:31.911Z,1.85
2022-09-06T18:37:36.073Z,1.80
2022-09-06T18:42:42.968Z,2.17
2022-09-06T18:47:44.732Z,5.35
2022-09-06T18:52:46.302Z,3.05
2022-09-06T18:57:47.819Z,5.70
2022-09-06T19:02:49.367Z,6.15
2022-09-06T19:07:50.931Z,6.25
2022-09-06T19:12:53.365Z,1.83
2022-09-06T19:17:55.180Z,1.67
2022-09-06T19:22:56.655Z,2.00
2022-09-06T19:27:58.330Z,1.95
2022-09-06T19:32:59.903Z,2.45
2022-09-06T19:38:01.438Z,3.33
2022-09-06T19:43:03.621Z,5.07
2022-09-06T19:48:06.532Z,2.70
2022-09-06T19:53:08.017Z,2.80
2022-09-06T19:58:09.556Z,2.38
2022-09-06T20:03:11.070Z,2.17
2022-09-06T20:08:13.537Z,2.25
2022-09-06T20:13:15.033Z,2.10
2022-09-06T20:18:17.706Z,1.80
2022-09-06T20:23:19.260Z,2.03
2022-09-06T20:28:20.755Z,1.80
2022-09-06T20:33:22.280Z,1.70
2022-09-06T20:38:24.545Z,1.75
2022-09-06T20:43:26.210Z,1.60
2022-09-06T20:48:27.828Z,2.78
2022-09-06T20:53:31.556Z,1.85
2022-09-06T20:58:33.151Z,2.00
2022-09-06T21:03:38.802Z,2.28
2022-09-06T21:08:42.859Z,2.30
2022-09-06T21:13:49.277Z,2.00
2022-09-06T21:18:52.187Z,1.90
2022-09-06T21:23:54.344Z,2.10
2022-09-06T21:28:56.205Z,2.00
2022-09-06T21:34:01.173Z,1.92
2022-09-06T21:39:06.218Z,1.67
2022-09-06T21:44:08.600Z,2.17
2022-09-06T21:49:12.717Z,2.95
2022-09-06T21:54:14.242Z,1.88
2022-09-06T21:59:15.701Z,2.72
2022-09-06T22:04:17.191Z,2.33
2022-09-06T22:09:18.728Z,2.42
2022-09-06T22:14:20.214Z,3.10
2022-09-06T22:19:21.703Z,4.45
2022-09-06T22:24:23.232Z,3.45
2022-09-06T22:29:25.161Z,3.75
2022-09-06T22:34:26.713Z,4.05
2022-09-06T22:39:28.253Z,4.35
2022-09-06T22:44:30.480Z,4.47
2022-09-06T22:49:32.080Z,5.22
2022-09-06T22:54:33.574Z,5.18
2022-09-06T22:59:36.006Z,4.72
2022-09-06T23:04:37.581Z,3.60
2022-09-06T23:09:39.159Z,2.30
2022-09-06T23:14:40.689Z,2.00
2022-09-06T23:19:42.240Z,2.53
2022-09-06T23:24:43.822Z,3.13
2022-09-06T23:29:46.005Z,3.40
2022-09-06T23:34:47.613Z,2.92
2022-09-06T23:39:49.200Z,3.25
2022-09-06T23:44:54.454Z,3.80
2022-09-06T23:49:55.975Z,3.97
2022-09-06T23:54:57.518Z,4.15
2022-09-06T23:59:59.016Z,4.18
